You are not logged in, Click here to log in
伍拉·賴國際機場 DPS / WADD 印度尼西亞-尼峇里省的一座國際機場,為峇里島唯一的國際機場
ICAO: WADD Country: 印度尼西亞-尼峇里省的一座國際機場,為峇里島唯一的國際機場
Latitude: -8.74672 Longitude: 115.167
Total Arrivals: 16 Total Departures: 17
Latest Arrival: 5J638 (RPVP-WADD)鈺友. 陳 Latest Departure: VA46 (WADD-YPDN)鈺友. 陳
Scenery:
METAR : WADD 220900Z 27012KT 9999 FEW016CB SCT016 30/27 Q1009 NOSIG

伍拉·賴國際機場 DPS